الصفحة الرئيسية
METAR-TAF:

METAR-TAF

مطار :

سنغافورة, سنغافورة

دائرة عرض: 01-25-08N, خط طول: 103-51-57E, ارتفاع: 11 متر

مراقبة الطقس الحالي

تاريخ ووقت الإصدار 53 دقيقة قبل الساعة 21:00UTC
ريح 2 عقدةمن اتجاهات متغيرة
درجة الحرارة 28°درجة مئوية
الرطوبة 84%
ضغط 1009 hPa
الرؤية 10 كم أو أكثر
غيوم متفرقة على ارتفاع 1800 قدم
غيوم مفككة على ارتفاع 30000 قدم

METAR: WSSL 252100Z VRB02KT 9999 SCT018 BKN300 28/25 Q1009

زمن: 05:53 (21:53 UTC)

توقعات

تاريخ ووقت الإصدار 4ساعات و 53 دقيقة قبل الساعة 17:00UTC
التوقعات صالحة من25 الساعة 18 UTC إلى 27 الساعة 00 UTC
ريح 10 عقدة من الجنوب/الجنوب الشرقي
الرؤية 10 كم أو أكثر
غيوم قليلة على ارتفاع 1500 قدم

TAF: WSSL 251700Z 2518/2700 15010KT 9999 FEW015

أرصاد الطقس والتوقعات من أكثر من 4000 مطار (تقارير الطقس للمطار METAR والتنبؤ بالطقس بالمطارTAF).

المحطات المتاحة هي النقط الصفراء والحمراء على الخريطة.

حرك المؤشر فوق النقطة لمعرفة اسم المحطة.

ثم انقر لمعرفة أرصاد وتوقعات الطقس.

لتغيير الخارطة: اضغط على الأزرار الخضراء مع رمز الصليب الأسود للتكبير. على الزر الأخضر مع شرطة للتصغير، أو على الأسهم الخضراء للخرائط المجاورة.


METAR-TAF: